Time;durP1;ratioP1;P1;durP2;ratioP2;P2;SDS_P1;SDS_P2;PMS_P1;PMS_P2;Temp;Humidity;BMP_temperature;BMP_pressure;BME280_temperature;BME280_humidity;BME280_pressure;Samples;Min_cycle;Max_cycle;Signal;HPM_P1;HPM_P2
2021/03/12 00:00:52;;;;;;;10.68;2.00;;;9.20;99.90;;;;;;2097342;28;20083;-75
2021/03/12 00:01:53;;;;;;;7.45;1.98;;;9.20;99.90;;;;;;2097488;28;20383;-75
2021/03/12 00:02:54;;;;;;;6.70;2.28;;;9.20;99.90;;;;;;2096625;28;20028;-75
2021/03/12 00:03:54;;;;;;;5.05;1.50;;;9.20;99.90;;;;;;2096527;28;20094;-75
2021/03/12 00:04:55;;;;;;;7.53;1.63;;;9.20;99.90;;;;;;2088567;28;20064;-75
2021/03/12 00:05:58;;;;;;;7.68;1.90;;;9.20;99.90;;;;;;2096984;28;20022;-74
2021/03/12 00:06:59;;;;;;;6.07;2.00;;;9.20;99.90;;;;;;2097215;28;20074;-75
2021/03/12 00:07:59;;;;;;;6.40;1.67;;;9.20;99.90;;;;;;2097098;28;20098;-75
2021/03/12 00:09:00;;;;;;;7.35;2.00;;;9.10;99.90;;;;;;2097407;28;20519;-75
2021/03/12 00:10:00;;;;;;;8.50;2.00;;;9.10;99.90;;;;;;2097420;28;20051;-75
2021/03/12 00:11:02;;;;;;;7.65;2.17;;;9.10;99.90;;;;;;2097305;28;20467;-74
2021/03/12 00:12:03;;;;;;;5.03;1.85;;;9.10;99.90;;;;;;2097210;28;20104;-75
2021/03/12 00:13:04;;;;;;;8.95;2.15;;;9.10;99.90;;;;;;2097207;28;20479;-74
2021/03/12 00:14:05;;;;;;;7.07;1.67;;;9.10;99.90;;;;;;2097183;28;20407;-75
2021/03/12 00:15:08;;;;;;;8.38;1.45;;;9.10;99.90;;;;;;2097087;28;20017;-74
2021/03/12 00:16:09;;;;;;;6.60;1.77;;;9.10;99.90;;;;;;2096487;28;20560;-75
2021/03/12 00:17:09;;;;;;;7.75;1.75;;;9.10;99.90;;;;;;2096369;28;20079;-75
2021/03/12 00:18:10;;;;;;;7.50;1.88;;;9.10;99.90;;;;;;2096394;28;20024;-75
2021/03/12 00:19:11;;;;;;;5.65;1.60;;;9.10;99.90;;;;;;2096679;28;20036;-75
2021/03/12 00:20:18;;;;;;;6.35;1.73;;;9.10;99.90;;;;;;2096681;28;20052;-74
2021/03/12 00:21:18;;;;;;;5.13;1.70;;;9.10;99.90;;;;;;2097278;28;20024;-75
2021/03/12 00:22:19;;;;;;;4.75;1.50;;;9.00;99.90;;;;;;2097220;28;20147;-74
2021/03/12 00:23:19;;;;;;;6.93;1.58;;;9.10;99.90;;;;;;2097117;28;20103;-74
2021/03/12 00:24:21;;;;;;;6.43;1.80;;;9.00;99.90;;;;;;2097031;28;20027;-74
2021/03/12 00:25:28;;;;;;;3.20;1.35;;;9.00;99.90;;;;;;2097045;28;20044;-74
2021/03/12 00:26:29;;;;;;;5.78;1.85;;;9.00;99.90;;;;;;2096837;28;20074;-74
2021/03/12 00:27:29;;;;;;;7.20;1.90;;;9.00;99.90;;;;;;2096919;28;20055;-75
2021/03/12 00:28:30;;;;;;;6.00;1.58;;;9.00;99.90;;;;;;2095934;28;20334;-75
2021/03/12 00:29:31;;;;;;;8.52;2.25;;;9.00;99.90;;;;;;2095903;28;20421;-74
2021/03/12 00:30:32;;;;;;;5.00;1.80;;;9.00;99.90;;;;;;2097060;28;20505;-74
2021/03/12 00:31:33;;;;;;;5.47;1.80;;;9.00;99.90;;;;;;2097285;28;20442;-75
2021/03/12 00:32:34;;;;;;;6.32;1.90;;;9.00;99.90;;;;;;2097217;28;20441;-74
2021/03/12 00:33:35;;;;;;;3.90;1.65;;;9.00;99.90;;;;;;2096309;28;20028;-74
2021/03/12 00:34:35;;;;;;;4.53;1.67;;;9.00;99.90;;;;;;2088156;28;20492;-74
2021/03/12 00:35:38;;;;;;;9.23;2.13;;;9.00;99.90;;;;;;2096457;28;20021;-75
2021/03/12 00:36:38;;;;;;;9.23;1.80;;;8.90;99.90;;;;;;2097096;28;20020;-75
2021/03/12 00:37:39;;;;;;;7.15;1.88;;;8.90;99.90;;;;;;2097049;28;20048;-74
2021/03/12 00:38:40;;;;;;;6.25;1.55;;;8.90;99.90;;;;;;2096183;28;20035;-74
2021/03/12 00:39:40;;;;;;;7.57;1.65;;;9.00;99.90;;;;;;2096742;28;20186;-75
2021/03/12 00:40:48;;;;;;;6.45;1.50;;;8.90;99.90;;;;;;2096490;28;20056;-75
2021/03/12 00:41:52;;;;;;;6.93;2.15;;;8.90;99.90;;;;;;2096725;28;20111;-74
2021/03/12 00:42:53;;;;;;;5.93;1.88;;;8.90;99.90;;;;;;2096982;28;20103;-75
2021/03/12 00:43:53;;;;;;;10.32;2.15;;;8.90;99.90;;;;;;2097038;28;20375;-74
2021/03/12 00:44:54;;;;;;;3.90;1.50;;;8.90;99.90;;;;;;2096970;28;20025;-74
2021/03/12 00:46:01;;;;;;;8.20;2.00;;;8.90;99.90;;;;;;2096885;28;20611;-74
2021/03/12 00:47:02;;;;;;;6.70;2.00;;;8.80;99.90;;;;;;2096650;28;20024;-74
2021/03/12 00:48:03;;;;;;;6.03;1.92;;;8.80;99.90;;;;;;2096743;28;20146;-74
2021/03/12 00:49:03;;;;;;;7.82;2.47;;;8.80;99.90;;;;;;2096985;28;20029;-74
2021/03/12 00:50:05;;;;;;;4.18;1.70;;;8.80;99.90;;;;;;2097097;28;20024;-74
2021/03/12 00:51:07;;;;;;;4.82;1.42;;;8.90;99.90;;;;;;2097042;28;20052;-75
2021/03/12 00:52:08;;;;;;;6.60;2.03;;;8.90;99.90;;;;;;2096473;28;20024;-74
2021/03/12 00:53:09;;;;;;;4.75;2.05;;;8.90;99.90;;;;;;2096506;28;20091;-74
2021/03/12 00:54:10;;;;;;;7.05;2.00;;;8.90;99.90;;;;;;2097209;28;20021;-74
2021/03/12 00:55:10;;;;;;;9.90;2.42;;;8.80;99.90;;;;;;2097193;28;20024;-74
2021/03/12 00:56:11;;;;;;;6.90;2.15;;;8.90;99.90;;;;;;2097100;28;20040;-74
2021/03/12 00:57:12;;;;;;;6.15;1.70;;;8.80;99.90;;;;;;2096709;28;20062;-74
2021/03/12 00:58:13;;;;;;;6.20;1.80;;;8.90;99.90;;;;;;2096534;28;20059;-74
2021/03/12 00:59:13;;;;;;;6.32;1.80;;;8.90;99.90;;;;;;2097068;28;20028;-75
2021/03/12 01:00:15;;;;;;;6.57;1.80;;;8.90;99.90;;;;;;2097096;28;20029;-74
2021/03/12 01:01:15;;;;;;;5.32;1.95;;;8.80;99.90;;;;;;2096591;28;20097;-74
2021/03/12 01:02:16;;;;;;;7.15;2.30;;;8.80;99.90;;;;;;2097039;28;20426;-74
2021/03/12 01:03:17;;;;;;;5.03;1.70;;;8.90;99.90;;;;;;2096933;28;20104;-75
2021/03/12 01:04:17;;;;;;;4.07;1.85;;;8.90;99.90;;;;;;2096904;28;20043;-74
2021/03/12 01:05:19;;;;;;;5.10;2.65;;;8.80;99.90;;;;;;2097075;28;20035;-74
2021/03/12 01:06:20;;;;;;;6.88;2.20;;;8.80;99.90;;;;;;2096019;28;20491;-74
2021/03/12 01:07:20;;;;;;;5.93;2.38;;;8.80;99.90;;;;;;2096079;28;20029;-74
2021/03/12 01:08:21;;;;;;;6.95;2.17;;;8.80;99.90;;;;;;2096662;28;20032;-74
2021/03/12 01:09:22;;;;;;;5.05;1.83;;;8.90;99.90;;;;;;2096954;28;20016;-75
2021/03/12 01:10:23;;;;;;;6.25;1.67;;;8.90;99.90;;;;;;2096215;28;20067;-75
2021/03/12 01:11:24;;;;;;;7.80;2.10;;;8.90;99.90;;;;;;2096479;28;20103;-75
2021/03/12 01:12:25;;;;;;;6.35;2.25;;;8.90;99.90;;;;;;2096091;28;20020;-74
2021/03/12 01:13:25;;;;;;;6.57;2.22;;;8.90;99.90;;;;;;2096710;28;20024;-74
2021/03/12 01:14:27;;;;;;;10.93;3.05;;;8.90;99.90;;;;;;2097393;28;20025;-74
2021/03/12 01:15:28;;;;;;;10.85;2.42;;;8.90;99.90;;;;;;2097688;28;20016;-75
2021/03/12 01:16:28;;;;;;;8.05;2.45;;;8.90;99.90;;;;;;2097144;28;20142;-74
2021/03/12 01:17:29;;;;;;;6.65;2.10;;;8.90;99.90;;;;;;2096736;28;20025;-74
2021/03/12 01:18:30;;;;;;;5.57;2.30;;;8.90;99.90;;;;;;2096587;28;20079;-74
2021/03/12 01:19:30;;;;;;;8.70;2.38;;;8.90;99.90;;;;;;2096947;28;20024;-74
2021/03/12 01:20:38;;;;;;;11.10;3.03;;;8.80;99.90;;;;;;2096763;28;20033;-75
2021/03/12 01:21:38;;;;;;;13.70;2.80;;;8.90;99.90;;;;;;2096858;28;20059;-75
2021/03/12 01:22:39;;;;;;;11.40;3.20;;;8.80;99.90;;;;;;2096839;28;20021;-74
2021/03/12 01:23:40;;;;;;;4.57;2.70;;;8.80;99.90;;;;;;2096757;28;20024;-74
2021/03/12 01:24:40;;;;;;;10.23;2.80;;;8.80;99.90;;;;;;2097020;28;20040;-75
2021/03/12 01:25:44;;;;;;;9.88;2.50;;;8.80;99.90;;;;;;2096984;28;20078;-74
2021/03/12 01:26:44;;;;;;;7.72;2.58;;;8.80;99.90;;;;;;2096139;28;20412;-74
2021/03/12 01:27:46;;;;;;;8.65;2.72;;;8.80;99.90;;;;;;2096761;28;20040;-75
2021/03/12 01:28:47;;;;;;;7.20;2.58;;;8.80;99.90;;;;;;2096457;28;20032;-75
2021/03/12 01:29:47;;;;;;;7.22;2.22;;;8.80;99.90;;;;;;2097049;28;20104;-75
2021/03/12 01:30:49;;;;;;;11.27;2.63;;;8.80;99.90;;;;;;2096799;28;20383;-75
2021/03/12 01:31:50;;;;;;;7.60;3.03;;;8.80;99.90;;;;;;2096363;28;20028;-75
2021/03/12 01:32:51;;;;;;;5.97;3.30;;;8.80;99.90;;;;;;2096223;28;20027;-75
2021/03/12 01:33:51;;;;;;;5.63;3.15;;;8.70;99.90;;;;;;2096723;28;20040;-74
2021/03/12 01:34:52;;;;;;;6.93;3.03;;;8.70;99.90;;;;;;2096713;28;20484;-74
2021/03/12 01:35:53;;;;;;;7.70;4.07;;;8.70;99.90;;;;;;2096875;28;20074;-74
2021/03/12 01:36:54;;;;;;;8.07;4.50;;;8.70;99.90;;;;;;2096183;28;20109;-74
2021/03/12 01:37:55;;;;;;;7.28;4.35;;;8.60;99.90;;;;;;2096727;28;20112;-74
2021/03/12 01:38:55;;;;;;;7.93;3.90;;;8.60;99.90;;;;;;2096390;28;20032;-75
2021/03/12 01:39:56;;;;;;;9.13;4.38;;;8.50;99.90;;;;;;2096956;28;20024;-75
2021/03/12 01:40:56;;;;;;;10.20;3.65;;;8.50;99.90;;;;;;2098273;28;20036;-75
2021/03/12 01:41:57;;;;;;;11.57;4.47;;;8.50;99.90;;;;;;2098671;28;20056;-75
2021/03/12 01:43:00;;;;;;;11.05;3.45;;;8.50;99.90;;;;;;2098524;28;20024;-75
2021/03/12 01:44:01;;;;;;;9.63;3.63;;;8.50;99.90;;;;;;2098273;28;20491;-75
2021/03/12 01:45:06;;;;;;;6.30;2.75;;;8.50;99.90;;;;;;2098538;28;20077;-75
2021/03/12 01:46:07;;;;;;;9.98;3.83;;;8.40;99.90;;;;;;2098539;28;20055;-75
2021/03/12 01:47:07;;;;;;;7.72;3.60;;;8.40;99.90;;;;;;2098134;28;20024;-75
2021/03/12 01:48:10;;;;;;;11.07;3.88;;;8.40;99.90;;;;;;2098042;28;20031;-75
2021/03/12 01:49:11;;;;;;;8.43;4.35;;;8.40;99.90;;;;;;2098458;28;20039;-75
2021/03/12 01:50:12;;;;;;;8.73;4.10;;;8.30;99.90;;;;;;2097776;28;20040;-75
2021/03/12 01:51:13;;;;;;;7.13;4.40;;;8.30;99.90;;;;;;2097872;28;20138;-76
2021/03/12 01:52:14;;;;;;;5.93;4.50;;;8.30;99.90;;;;;;2098455;28;20027;-75
2021/03/12 01:53:16;;;;;;;10.32;4.85;;;8.20;99.90;;;;;;2098473;28;20099;-75
2021/03/12 01:54:17;;;;;;;7.82;5.20;;;8.20;99.90;;;;;;2098251;28;20024;-76
2021/03/12 01:55:28;;;;;;;7.85;5.15;;;8.20;99.90;;;;;;2098608;28;20052;-75
2021/03/12 01:56:29;;;;;;;7.78;4.90;;;8.20;99.90;;;;;;2098597;28;20070;-75
2021/03/12 01:57:30;;;;;;;6.47;4.25;;;8.20;99.90;;;;;;2098181;28;20486;-75
2021/03/12 01:58:32;;;;;;;11.00;5.32;;;8.20;99.90;;;;;;2098259;28;20028;-75
2021/03/12 01:59:33;;;;;;;11.60;5.05;;;8.20;99.90;;;;;;2098523;28;20112;-75
2021/03/12 02:00:34;;;;;;;5.82;4.88;;;8.20;99.90;;;;;;2098691;28;20032;-75
2021/03/12 02:01:35;;;;;;;9.88;5.30;;;8.20;99.90;;;;;;2098386;28;20028;-75
2021/03/12 02:02:37;;;;;;;9.13;5.47;;;8.10;99.90;;;;;;2097759;28;20079;-76
2021/03/12 02:03:37;;;;;;;7.40;4.75;;;8.20;99.90;;;;;;2089406;28;20063;-76
2021/03/12 02:04:38;;;;;;;10.43;5.60;;;8.20;99.90;;;;;;2089799;28;20028;-75
2021/03/12 02:05:40;;;;;;;7.97;4.88;;;8.10;99.90;;;;;;2097769;28;20028;-76
2021/03/12 02:06:40;;;;;;;8.95;4.90;;;8.10;99.90;;;;;;2098390;28;20032;-75
2021/03/12 02:07:42;;;;;;;11.32;5.13;;;8.20;99.90;;;;;;2098536;28;20020;-76
2021/03/12 02:08:42;;;;;;;7.05;4.32;;;8.20;99.90;;;;;;2097476;28;20060;-75
2021/03/12 02:09:43;;;;;;;13.23;4.90;;;8.20;99.90;;;;;;2097734;28;20028;-76
2021/03/12 02:10:45;;;;;;;9.82;4.63;;;8.10;99.90;;;;;;2098247;28;20487;-75
2021/03/12 02:12:10;;;;;;;6.18;4.10;;;8.10;99.90;;;;;;2098418;28;20027;-75
2021/03/12 02:13:13;;;;;;;8.80;4.80;;;8.10;99.90;;;;;;2098633;28;20020;-76
2021/03/12 02:14:19;;;;;;;8.50;4.55;;;8.10;99.90;;;;;;2098125;28;20016;-74
2021/03/12 02:15:47;;;;;;;9.85;4.60;;;8.10;99.90;;;;;;2098043;28;20021;-76
2021/03/12 02:17:10;;;;;;;8.35;4.63;;;8.10;99.90;;;;;;2100954;28;20036;-75
2021/03/12 02:18:19;;;;;;;9.95;4.70;;;8.10;99.90;;;;;;2097117;28;20036;-76
2021/03/12 02:19:44;;;;;;;8.88;4.63;;;8.10;99.90;;;;;;2097934;28;20112;-76
2021/03/12 02:20:56;;;;;;;11.98;4.53;;;8.10;99.90;;;;;;2092457;28;20697;-76
2021/03/12 02:21:59;;;;;;;11.63;4.32;;;8.10;99.90;;;;;;2097830;28;20029;-76
2021/03/12 02:23:29;;;;;;;7.97;4.20;;;8.10;99.90;;;;;;2098384;28;20514;-76
2021/03/12 02:24:54;;;;;;;12.90;4.75;;;8.10;99.90;;;;;;2098288;28;20494;-76
2021/03/12 02:26:09;;;;;;;9.90;4.38;;;8.10;99.90;;;;;;2098023;28;20463;-76
2021/03/12 02:27:12;;;;;;;15.65;3.75;;;8.10;99.90;;;;;;2097849;28;20052;-76
2021/03/12 02:28:13;;;;;;;9.98;4.18;;;8.00;99.90;;;;;;2097796;28;20029;-75
2021/03/12 02:29:22;;;;;;;9.77;4.20;;;8.10;99.90;;;;;;2097306;28;20023;-76
2021/03/12 02:30:23;;;;;;;9.63;4.30;;;8.10;99.90;;;;;;2097683;28;20040;-75
2021/03/12 02:31:24;;;;;;;9.25;3.63;;;8.10;99.90;;;;;;2098058;28;20467;-75
2021/03/12 02:32:38;;;;;;;6.82;3.67;;;8.10;99.90;;;;;;2098141;28;20028;-76
2021/03/12 02:33:39;;;;;;;8.05;5.05;;;8.00;99.90;;;;;;2098091;28;20066;-76
2021/03/12 02:34:42;;;;;;;9.63;5.10;;;8.10;99.90;;;;;;2097784;28;20166;-77
2021/03/12 02:35:46;;;;;;;9.35;5.10;;;8.00;99.90;;;;;;2098313;28;20032;-77
2021/03/12 02:36:50;;;;;;;9.85;6.13;;;8.00;99.90;;;;;;2096980;28;20562;-78
2021/03/12 02:37:54;;;;;;;10.38;5.38;;;8.00;99.90;;;;;;2097446;28;20236;-77
2021/03/12 02:38:57;;;;;;;7.78;5.22;;;8.00;99.90;;;;;;2097915;28;20082;-77
2021/03/12 02:39:59;;;;;;;9.20;5.78;;;8.00;99.90;;;;;;2098144;28;20509;-79
2021/03/12 02:41:04;;;;;;;7.70;5.47;;;7.90;99.90;;;;;;2098178;28;20028;-77
2021/03/12 02:42:05;;;;;;;11.15;6.18;;;7.90;99.90;;;;;;2098254;28;20027;-78
2021/03/12 02:43:06;;;;;;;8.07;5.30;;;7.90;99.90;;;;;;2098196;28;20025;-75
2021/03/12 02:44:08;;;;;;;7.47;5.90;;;7.90;99.90;;;;;;2097003;28;20025;-75
2021/03/12 02:45:11;;;;;;;8.32;4.88;;;7.90;99.90;;;;;;2097359;28;20408;-75
2021/03/12 02:46:13;;;;;;;9.82;5.22;;;7.90;99.90;;;;;;2098169;28;20020;-77
2021/03/12 02:47:23;;;;;;;11.35;5.15;;;7.90;99.90;;;;;;2096834;28;20016;-76
2021/03/12 02:48:24;;;;;;;;;;;7.90;99.90;;;;;;2097742;28;20025;-76
2021/03/12 02:49:26;;;;;;;11.63;4.75;;;7.80;99.90;;;;;;2098059;28;20047;-75
2021/03/12 02:50:27;;;;;;;7.47;5.07;;;7.80;99.90;;;;;;2097126;28;20104;-75
2021/03/12 02:51:28;;;;;;;7.88;4.88;;;7.80;99.90;;;;;;2097475;28;20043;-78
2021/03/12 02:52:29;;;;;;;10.00;5.20;;;7.80;99.90;;;;;;2096911;28;20099;-76
2021/03/12 02:53:30;;;;;;;11.38;5.53;;;7.90;99.90;;;;;;2097911;28;20020;-77
2021/03/12 02:54:31;;;;;;;10.20;5.00;;;7.90;99.90;;;;;;2097810;28;20052;-76
2021/03/12 02:55:33;;;;;;;10.43;4.70;;;7.90;99.90;;;;;;2098084;28;20033;-76
2021/03/12 02:56:35;;;;;;;9.63;4.57;;;7.90;99.90;;;;;;2097238;28;20422;-76
2021/03/12 02:57:38;;;;;;;15.05;5.20;;;7.90;99.90;;;;;;2097011;28;20020;-77
2021/03/12 02:58:42;;;;;;;8.40;4.47;;;7.90;99.90;;;;;;2089171;28;20052;-75
2021/03/12 02:59:43;;;;;;;9.75;4.70;;;7.90;99.90;;;;;;2097283;28;20024;-76
2021/03/12 03:00:44;;;;;;;13.02;4.57;;;7.90;99.90;;;;;;2097934;28;20016;-77
2021/03/12 03:01:51;;;;;;;8.70;4.43;;;7.90;99.90;;;;;;2098504;28;20029;-76
2021/03/12 03:02:52;;;;;;;10.63;4.80;;;7.90;99.90;;;;;;2097752;28;20032;-76
2021/03/12 03:03:54;;;;;;;15.57;4.93;;;7.90;99.90;;;;;;2097979;28;20028;-76
2021/03/12 03:04:59;;;;;;;16.45;5.13;;;7.90;99.90;;;;;;2098129;28;20024;-77
2021/03/12 03:06:05;;;;;;;7.80;4.07;;;7.90;99.90;;;;;;2098062;28;20024;-77
2021/03/12 03:07:13;;;;;;;10.75;5.20;;;7.90;99.90;;;;;;2097489;28;20040;-78
2021/03/12 03:08:15;;;;;;;12.68;5.00;;;7.90;99.90;;;;;;2098442;28;20116;-77
2021/03/12 03:09:17;;;;;;;11.05;5.05;;;7.90;99.90;;;;;;2098352;28;20017;-76
2021/03/12 03:10:20;;;;;;;11.60;4.85;;;7.90;99.90;;;;;;2098398;28;20472;-76
2021/03/12 03:11:22;;;;;;;11.05;5.05;;;7.90;99.90;;;;;;2098545;28;20105;-77
2021/03/12 03:12:25;;;;;;;11.68;4.90;;;7.90;99.90;;;;;;2097891;28;20020;-77
2021/03/12 03:13:31;;;;;;;11.00;4.80;;;7.90;99.90;;;;;;2089832;28;20104;-76
2021/03/12 03:14:32;;;;;;;13.70;4.88;;;7.90;99.90;;;;;;2097719;28;20067;-77
2021/03/12 03:15:35;;;;;;;9.25;4.75;;;7.90;99.90;;;;;;2097548;28;20024;-77
2021/03/12 03:16:37;;;;;;;8.73;4.55;;;8.00;99.90;;;;;;2098385;28;20101;-75
2021/03/12 03:17:39;;;;;;;9.65;4.82;;;8.00;99.90;;;;;;2097958;28;20017;-76
2021/03/12 03:18:40;;;;;;;12.43;5.05;;;8.00;99.90;;;;;;2097501;28;20031;-77
2021/03/12 03:19:45;;;;;;;8.48;4.25;;;8.00;99.90;;;;;;2097917;28;20039;-76
2021/03/12 03:20:47;;;;;;;15.60;4.75;;;8.00;99.90;;;;;;2098301;28;20020;-76
2021/03/12 03:21:49;;;;;;;11.27;4.35;;;8.00;99.90;;;;;;2098535;28;20021;-76
2021/03/12 03:22:49;;;;;;;10.07;4.60;;;7.90;99.90;;;;;;2098360;28;20078;-75
2021/03/12 03:23:50;;;;;;;10.27;4.30;;;7.90;99.90;;;;;;2098322;28;20074;-76
2021/03/12 03:24:51;;;;;;;13.57;4.10;;;8.00;99.90;;;;;;2098272;28;20411;-75
2021/03/12 03:25:52;;;;;;;7.90;4.03;;;8.00;99.90;;;;;;2098186;28;20028;-75
2021/03/12 03:26:54;;;;;;;10.45;4.68;;;8.00;99.90;;;;;;2097819;28;20044;-76
2021/03/12 03:27:54;;;;;;;8.13;3.65;;;8.00;99.90;;;;;;2098176;28;20349;-76
2021/03/12 03:28:55;;;;;;;6.30;4.03;;;8.00;99.90;;;;;;2098093;28;20108;-76
2021/03/12 03:29:56;;;;;;;10.10;4.10;;;8.00;99.90;;;;;;2097760;28;20025;-75
2021/03/12 03:31:02;;;;;;;13.93;4.65;;;8.00;99.90;;;;;;2097394;28;20490;-76
2021/03/12 03:32:04;;;;;;;9.80;3.92;;;8.00;99.90;;;;;;2097975;28;20049;-75
2021/03/12 03:33:04;;;;;;;7.25;3.65;;;8.00;99.90;;;;;;2098230;28;20024;-76
2021/03/12 03:34:05;;;;;;;8.15;4.15;;;8.00;99.90;;;;;;2097748;28;20440;-76
2021/03/12 03:35:08;;;;;;;7.82;3.47;;;8.00;99.90;;;;;;2097572;28;20147;-77
2021/03/12 03:36:09;;;;;;;7.78;3.67;;;8.00;99.90;;;;;;2098208;28;20162;-76
2021/03/12 03:37:10;;;;;;;10.45;3.22;;;8.00;99.90;;;;;;2097729;28;20051;-76
2021/03/12 03:38:11;;;;;;;11.10;3.80;;;8.00;99.90;;;;;;2097552;28;20407;-75
2021/03/12 03:39:12;;;;;;;6.38;2.92;;;8.10;99.90;;;;;;2097652;28;20037;-76
2021/03/12 03:40:13;;;;;;;6.97;3.45;;;8.00;99.90;;;;;;2097567;28;20028;-76
2021/03/12 03:41:16;;;;;;;12.77;3.88;;;8.00;99.90;;;;;;2097475;28;20028;-76
2021/03/12 03:42:17;;;;;;;6.20;3.38;;;8.00;99.90;;;;;;2098285;28;20031;-75
2021/03/12 03:43:23;;;;;;;12.32;3.40;;;8.00;99.90;;;;;;2097606;28;20554;-76
2021/03/12 03:44:27;;;;;;;12.15;3.10;;;8.00;99.90;;;;;;2097739;28;20081;-76
2021/03/12 03:45:30;;;;;;;13.65;4.00;;;8.10;99.90;;;;;;2097896;28;20498;-79
2021/03/12 03:46:30;;;;;;;11.20;3.50;;;8.10;99.90;;;;;;2097910;28;20033;-76
2021/03/12 03:47:32;;;;;;;11.77;3.88;;;8.10;99.90;;;;;;2097948;28;20112;-76
2021/03/12 03:48:35;;;;;;;11.73;3.70;;;8.00;99.90;;;;;;2097922;28;20056;-76
2021/03/12 03:49:38;;;;;;;12.68;3.47;;;8.10;99.90;;;;;;2097486;28;20057;-75
2021/03/12 03:50:41;;;;;;;9.23;3.45;;;8.00;99.90;;;;;;2097514;28;20020;-76
2021/03/12 03:51:42;;;;;;;8.55;3.15;;;8.10;99.90;;;;;;2098085;28;20016;-75
2021/03/12 03:52:43;;;;;;;7.30;2.80;;;8.10;99.90;;;;;;2098179;28;20021;-76
2021/03/12 03:53:45;;;;;;;7.97;3.30;;;8.10;99.90;;;;;;2097515;28;20012;-76
2021/03/12 03:54:48;;;;;;;7.03;2.70;;;8.10;99.90;;;;;;2097616;28;20082;-76
2021/03/12 03:55:50;;;;;;;10.27;3.28;;;8.10;99.90;;;;;;2096917;28;20142;-76
2021/03/12 03:56:51;;;;;;;7.30;2.95;;;8.10;99.90;;;;;;2096328;28;20483;-76
2021/03/12 03:57:52;;;;;;;8.38;3.25;;;8.10;99.90;;;;;;2097429;28;20028;-76
2021/03/12 03:58:54;;;;;;;4.97;2.65;;;8.10;99.90;;;;;;2097305;28;20028;-76
2021/03/12 03:59:58;;;;;;;7.32;3.03;;;8.10;99.90;;;;;;2097594;28;20568;-75
2021/03/12 04:00:59;;;;;;;8.65;3.58;;;8.10;99.90;;;;;;2097277;28;20047;-76
2021/03/12 04:02:01;;;;;;;9.70;3.30;;;8.10;99.90;;;;;;2097130;28;20118;-76
2021/03/12 04:03:02;;;;;;;9.40;3.13;;;8.10;99.90;;;;;;2096997;28;20045;-76
2021/03/12 04:04:06;;;;;;;7.35;3.15;;;8.10;99.90;;;;;;2097045;28;20028;-76
2021/03/12 04:05:07;;;;;;;8.80;3.13;;;8.10;99.90;;;;;;2097194;28;20120;-76
2021/03/12 04:06:09;;;;;;;5.50;2.67;;;8.10;99.90;;;;;;2097071;28;20070;-76
2021/03/12 04:07:11;;;;;;;8.07;3.08;;;8.10;99.90;;;;;;2096483;28;20033;-76
2021/03/12 04:08:11;;;;;;;8.65;3.72;;;8.20;99.90;;;;;;2096857;28;20043;-76
2021/03/12 04:09:14;;;;;;;11.27;3.40;;;8.20;99.90;;;;;;2096708;28;20383;-76
2021/03/12 04:10:15;;;;;;;8.43;3.20;;;8.10;99.90;;;;;;2097555;28;20052;-75
2021/03/12 04:11:17;;;;;;;11.40;2.90;;;8.10;99.90;;;;;;2097113;28;20384;-76
2021/03/12 04:12:18;;;;;;;9.02;3.08;;;8.10;99.90;;;;;;2097479;28;20025;-76
2021/03/12 04:13:19;;;;;;;12.05;3.17;;;8.10;99.90;;;;;;2097526;28;20036;-76
2021/03/12 04:14:21;;;;;;;9.88;2.88;;;8.10;99.90;;;;;;2097383;28;20028;-75
2021/03/12 04:15:22;;;;;;;12.32;3.35;;;8.10;99.90;;;;;;2097422;28;20021;-76
2021/03/12 04:16:23;;;;;;;10.38;2.83;;;8.10;99.90;;;;;;2097238;28;20021;-75
2021/03/12 04:17:25;;;;;;;9.77;3.38;;;8.10;99.90;;;;;;2096888;28;20086;-76
2021/03/12 04:18:26;;;;;;;9.23;3.10;;;8.10;99.90;;;;;;2097400;28;20025;-75
2021/03/12 04:19:28;;;;;;;7.22;3.22;;;8.10;99.90;;;;;;2096632;28;20051;-76
2021/03/12 04:20:29;;;;;;;8.77;3.00;;;8.10;99.90;;;;;;2096525;28;20029;-76
2021/03/12 04:21:30;;;;;;;5.93;2.58;;;8.10;99.90;;;;;;2096775;28;20058;-76
2021/03/12 04:22:32;;;;;;;8.50;3.33;;;8.10;99.90;;;;;;2096741;28;20026;-76
2021/03/12 04:23:33;;;;;;;7.88;2.90;;;8.10;99.90;;;;;;2096717;28;20506;-76
2021/03/12 04:24:33;;;;;;;8.77;3.55;;;8.10;99.90;;;;;;2096653;28;20033;-75
2021/03/12 04:25:34;;;;;;;11.70;3.25;;;8.10;99.90;;;;;;2097097;28;20081;-76
2021/03/12 04:26:36;;;;;;;11.10;3.35;;;8.10;99.90;;;;;;2096410;28;20032;-75
2021/03/12 04:27:37;;;;;;;14.73;3.90;;;8.10;99.90;;;;;;2096522;28;20021;-75
2021/03/12 04:28:38;;;;;;;11.50;3.53;;;8.10;99.90;;;;;;2097018;28;20020;-75
2021/03/12 04:29:40;;;;;;;14.57;3.25;;;8.10;99.90;;;;;;2097479;28;20025;-76
2021/03/12 04:30:41;;;;;;;10.10;3.05;;;8.10;99.90;;;;;;2097124;28;20032;-75
2021/03/12 04:31:42;;;;;;;13.43;3.25;;;8.10;99.90;;;;;;2096645;28;20070;-75
2021/03/12 04:32:44;;;;;;;8.43;2.95;;;8.10;99.90;;;;;;2096540;28;20017;-75
2021/03/12 04:33:45;;;;;;;10.65;3.08;;;8.10;99.90;;;;;;2097235;28;20067;-75
2021/03/12 04:34:46;;;;;;;12.07;3.35;;;8.20;99.90;;;;;;2097191;28;20017;-75
2021/03/12 04:35:47;;;;;;;9.65;3.05;;;8.10;99.90;;;;;;2097337;28;20052;-75
2021/03/12 04:36:48;;;;;;;7.57;2.40;;;8.20;99.90;;;;;;2096655;28;20561;-75
2021/03/12 04:37:49;;;;;;;16.60;3.38;;;8.10;99.90;;;;;;2097372;28;20028;-75
2021/03/12 04:38:50;;;;;;;11.68;3.38;;;8.10;99.90;;;;;;2096976;28;20495;-75
2021/03/12 04:39:52;;;;;;;9.40;2.75;;;8.20;99.90;;;;;;2097390;28;20035;-76
2021/03/12 04:40:53;;;;;;;5.85;2.67;;;8.20;99.90;;;;;;2096358;28;20116;-75
2021/03/12 04:41:53;;;;;;;9.70;3.30;;;8.20;99.90;;;;;;2088374;28;20025;-75
2021/03/12 04:42:54;;;;;;;12.15;3.00;;;8.20;99.90;;;;;;2088308;28;20582;-75
2021/03/12 04:43:55;;;;;;;11.60;3.28;;;8.20;99.90;;;;;;2096681;28;20051;-75
2021/03/12 04:44:56;;;;;;;9.13;2.72;;;8.20;99.90;;;;;;2097119;28;20035;-75
2021/03/12 04:46:00;;;;;;;12.18;3.30;;;8.20;99.90;;;;;;2097171;28;20031;-75
2021/03/12 04:47:03;;;;;;;9.45;3.20;;;8.20;99.90;;;;;;2096738;28;20031;-74
2021/03/12 04:48:05;;;;;;;10.55;3.38;;;8.20;99.90;;;;;;2097014;28;20501;-75
2021/03/12 04:49:08;;;;;;;9.43;3.33;;;8.20;99.90;;;;;;2096128;28;20028;-75
2021/03/12 04:50:10;;;;;;;6.65;2.72;;;8.20;99.90;;;;;;2096685;28;20035;-75
2021/03/12 04:51:11;;;;;;;8.57;2.97;;;8.20;99.90;;;;;;2097069;28;20052;-75
2021/03/12 04:52:13;;;;;;;9.52;3.10;;;8.20;99.90;;;;;;2097130;28;20027;-75
2021/03/12 04:53:14;;;;;;;9.50;2.92;;;8.20;99.90;;;;;;2097211;28;20020;-74
2021/03/12 04:54:17;;;;;;;6.88;3.28;;;8.10;99.90;;;;;;2097072;28;20017;-74
2021/03/12 04:55:19;;;;;;;8.65;3.00;;;8.10;99.90;;;;;;2097067;28;20033;-75
2021/03/12 04:56:20;;;;;;;18.80;4.38;;;8.10;99.90;;;;;;2097010;28;20073;-75
2021/03/12 04:57:20;;;;;;;10.35;3.75;;;8.20;99.90;;;;;;2095997;28;20573;-74
2021/03/12 04:58:22;;;;;;;11.05;3.92;;;8.10;99.90;;;;;;2096264;28;20028;-73
2021/03/12 04:59:22;;;;;;;9.82;3.00;;;8.10;99.90;;;;;;2096920;28;20367;-74
2021/03/12 05:00:24;;;;;;;11.93;3.17;;;8.10;99.90;;;;;;2096324;28;20024;-73
2021/03/12 05:01:25;;;;;;;7.50;3.15;;;8.10;99.90;;;;;;2096277;28;20021;-75
2021/03/12 05:02:25;;;;;;;12.30;3.92;;;8.20;99.90;;;;;;2088112;28;20112;-74
2021/03/12 05:03:26;;;;;;;8.02;3.00;;;8.10;99.90;;;;;;2088115;28;20037;-75
2021/03/12 05:04:27;;;;;;;7.97;3.03;;;8.10;99.90;;;;;;2096255;28;20024;-75
2021/03/12 05:05:29;;;;;;;9.27;3.22;;;8.10;99.90;;;;;;2097077;28;20052;-74
2021/03/12 05:06:31;;;;;;;8.07;2.60;;;8.10;99.90;;;;;;2096706;28;20503;-75
2021/03/12 05:07:33;;;;;;;9.00;3.25;;;8.10;99.90;;;;;;2096518;28;20060;-74
2021/03/12 05:08:36;;;;;;;9.25;3.33;;;8.10;99.90;;;;;;2096815;28;20497;-74
2021/03/12 05:09:36;;;;;;;8.88;2.88;;;8.10;99.90;;;;;;2096927;28;20097;-75
2021/03/12 05:10:38;;;;;;;12.73;3.28;;;8.10;99.90;;;;;;2096828;28;20390;-74
2021/03/12 05:11:42;;;;;;;9.77;3.40;;;8.10;99.90;;;;;;2096851;28;20416;-74
2021/03/12 05:12:42;;;;;;;10.95;3.50;;;8.10;99.90;;;;;;2096267;28;20020;-74
2021/03/12 05:13:43;;;;;;;11.05;3.33;;;8.10;99.90;;;;;;2096345;28;20049;-74
2021/03/12 05:14:43;;;;;;;12.40;3.30;;;8.10;99.90;;;;;;2096747;28;20372;-74
2021/03/12 05:15:44;;;;;;;12.10;3.28;;;8.10;99.90;;;;;;2096592;28;20027;-74
2021/03/12 05:16:45;;;;;;;5.82;3.42;;;8.10;99.90;;;;;;2096527;28;20021;-74
2021/03/12 05:17:45;;;;;;;8.50;3.40;;;8.10;99.90;;;;;;2096457;28;20616;-75
2021/03/12 05:18:46;;;;;;;10.93;3.75;;;8.10;99.90;;;;;;2096112;28;20078;-74
2021/03/12 05:19:47;;;;;;;9.70;3.30;;;8.10;99.90;;;;;;2096968;28;20028;-75
2021/03/12 05:20:49;;;;;;;12.95;3.40;;;8.20;99.90;;;;;;2096606;28;20033;-74
2021/03/12 05:21:49;;;;;;;10.25;3.75;;;8.20;99.90;;;;;;2096884;28;20028;-74
2021/03/12 05:22:50;;;;;;;8.48;3.00;;;8.20;99.90;;;;;;2096880;28;20020;-74
2021/03/12 05:23:50;;;;;;;14.25;3.38;;;8.10;99.90;;;;;;2096924;28;20032;-74
2021/03/12 05:24:51;;;;;;;9.15;3.47;;;8.20;99.90;;;;;;2096794;28;20033;-74
2021/03/12 05:25:52;;;;;;;11.05;3.30;;;8.20;99.90;;;;;;2096925;28;20025;-74
2021/03/12 05:26:53;;;;;;;12.25;3.90;;;8.20;99.90;;;;;;2096341;28;20051;-74